Time;durP1;ratioP1;P1;durP2;ratioP2;P2;SDS_P1;SDS_P2;PMS_P1;PMS_P2;Temp;Humidity;BMP_temperature;BMP_pressure;BME280_temperature;BME280_humidity;BME280_pressure;Samples;Min_cycle;Max_cycle;Signal;HPM_P1;HPM_P2
2021/10/05 00:01:32;;;;;;;5.37;4.57;;;14.40;99.90;;;;;;5094257;28;20203;-60
2021/10/05 00:03:59;;;;;;;5.17;4.63;;;14.40;99.90;;;;;;5094052;28;20770;-60
2021/10/05 00:06:27;;;;;;;5.87;4.37;;;14.40;99.90;;;;;;5094170;28;20259;-60
2021/10/05 00:08:54;;;;;;;5.10;4.57;;;14.30;99.90;;;;;;5094016;28;20671;-60
2021/10/05 00:11:21;;;;;;;5.20;4.70;;;14.40;99.90;;;;;;5094124;28;20289;-59
2021/10/05 00:13:47;;;;;;;7.17;4.67;;;14.20;99.90;;;;;;5093681;28;20204;-60
2021/10/05 00:16:14;;;;;;;5.40;4.47;;;14.20;99.90;;;;;;5093875;28;20216;-60
2021/10/05 00:18:41;;;;;;;4.70;4.30;;;14.30;99.90;;;;;;5093497;28;20215;-58
2021/10/05 00:21:09;;;;;;;5.80;5.17;;;14.30;99.90;;;;;;5094054;28;20550;-60
2021/10/05 00:23:37;;;;;;;5.53;4.57;;;14.40;99.90;;;;;;5093666;28;20205;-60
2021/10/05 00:26:04;;;;;;;5.43;4.93;;;14.50;99.90;;;;;;5094244;28;20236;-58
2021/10/05 00:28:30;;;;;;;6.37;4.80;;;14.50;99.90;;;;;;5093676;28;20212;-58
2021/10/05 00:30:57;;;;;;;5.00;4.60;;;14.50;99.90;;;;;;5093714;28;20208;-58
2021/10/05 00:33:24;;;;;;;5.43;4.93;;;14.50;99.90;;;;;;5093529;28;20286;-57
2021/10/05 00:35:50;;;;;;;5.13;4.70;;;14.50;99.90;;;;;;5093758;28;20208;-58
2021/10/05 00:38:17;;;;;;;7.80;5.30;;;14.50;99.90;;;;;;5093577;28;20200;-57
2021/10/05 00:40:46;;;;;;;5.80;5.27;;;14.50;99.90;;;;;;5093335;28;20680;-58
2021/10/05 00:43:13;;;;;;;6.90;5.27;;;14.60;99.90;;;;;;5093191;28;20208;-58
2021/10/05 00:45:40;;;;;;;5.87;5.27;;;14.60;99.90;;;;;;5092915;28;20250;-58
2021/10/05 00:48:07;;;;;;;5.70;5.10;;;14.60;99.90;;;;;;5093252;28;20208;-57
2021/10/05 00:50:34;;;;;;;6.77;5.63;;;14.60;99.90;;;;;;5093342;28;20205;-57
2021/10/05 00:53:01;;;;;;;6.20;5.50;;;14.60;99.90;;;;;;5093172;28;20208;-58
2021/10/05 00:55:28;;;;;;;7.37;5.70;;;14.60;99.90;;;;;;5093346;28;20579;-57
2021/10/05 00:57:56;;;;;;;6.13;5.53;;;14.60;99.90;;;;;;5093259;28;20224;-58
2021/10/05 01:00:24;;;;;;;7.43;6.17;;;14.60;99.90;;;;;;5092874;28;20212;-58
2021/10/05 01:02:51;;;;;;;6.50;5.90;;;14.70;99.90;;;;;;5093125;28;20336;-57
2021/10/05 01:05:18;;;;;;;8.10;7.30;;;14.70;99.90;;;;;;5093043;28;20205;-57
2021/10/05 01:07:47;;;;;;;7.83;7.10;;;14.70;99.90;;;;;;5092667;28;20263;-60
2021/10/05 01:10:17;;;;;;;7.57;6.87;;;14.70;99.90;;;;;;5092725;28;20231;-58
2021/10/05 01:12:46;;;;;;;6.33;5.47;;;14.60;99.90;;;;;;5092784;28;20227;-58
2021/10/05 01:15:14;;;;;;;6.53;5.93;;;14.30;99.90;;;;;;5092726;28;20622;-58
2021/10/05 01:17:41;;;;;;;6.33;5.60;;;14.40;99.90;;;;;;5093136;28;20243;-57
2021/10/05 01:20:08;;;;;;;6.53;5.93;;;14.40;99.90;;;;;;5093200;28;20235;-57
2021/10/05 01:22:37;;;;;;;7.60;5.93;;;14.50;99.90;;;;;;5092943;28;20250;-57
2021/10/05 01:25:05;;;;;;;6.83;6.13;;;14.40;99.90;;;;;;5092421;28;20216;-60
2021/10/05 01:27:32;;;;;;;6.47;5.87;;;14.40;99.90;;;;;;5092553;28;20319;-59
2021/10/05 01:29:58;;;;;;;6.97;6.30;;;14.30;99.90;;;;;;5092783;28;20204;-58
2021/10/05 01:32:25;;;;;;;7.43;6.83;;;14.40;99.90;;;;;;5092679;28;20249;-58
2021/10/05 01:34:51;;;;;;;7.50;6.80;;;14.40;99.90;;;;;;5092417;28;20223;-57
2021/10/05 01:37:18;;;;;;;8.00;7.20;;;14.40;99.90;;;;;;5092483;28;20221;-59
2021/10/05 01:39:46;;;;;;;7.20;6.50;;;14.40;99.90;;;;;;5092829;28;20253;-57
2021/10/05 01:42:14;;;;;;;7.60;6.80;;;14.50;99.90;;;;;;5092920;28;20204;-58
2021/10/05 01:44:44;;;;;;;7.63;6.93;;;14.50;99.90;;;;;;5092491;28;20216;-58
2021/10/05 01:47:11;;;;;;;8.80;7.57;;;14.50;99.90;;;;;;5092686;28;20244;-60
2021/10/05 01:49:39;;;;;;;7.27;6.57;;;14.50;99.90;;;;;;5092593;28;20211;-57
2021/10/05 01:52:07;;;;;;;9.37;6.13;;;14.50;99.90;;;;;;5092313;28;20212;-58
2021/10/05 01:54:34;;;;;;;9.13;6.37;;;14.40;99.90;;;;;;5091449;28;20212;-57
2021/10/05 01:57:03;;;;;;;6.83;6.13;;;14.40;99.90;;;;;;5092167;28;20406;-59
2021/10/05 01:59:29;;;;;;;7.57;6.07;;;14.60;99.90;;;;;;5091853;28;20200;-58
2021/10/05 02:01:56;;;;;;;7.13;6.53;;;14.60;99.90;;;;;;5091931;28;20200;-58
2021/10/05 02:04:23;;;;;;;8.00;7.07;;;14.60;99.90;;;;;;5091675;28;20204;-58
2021/10/05 02:06:49;;;;;;;7.40;6.70;;;14.70;99.90;;;;;;5091396;28;20745;-60
2021/10/05 02:09:16;;;;;;;8.83;7.93;;;14.70;99.90;;;;;;5091524;28;20219;-57
2021/10/05 02:11:43;;;;;;;7.93;7.17;;;14.80;99.90;;;;;;5091771;28;20211;-57
2021/10/05 02:14:11;;;;;;;8.37;7.57;;;14.80;99.90;;;;;;5091487;28;20216;-59
2021/10/05 02:16:38;;;;;;;8.30;7.40;;;14.80;99.90;;;;;;5091523;28;20594;-59
2021/10/05 02:19:05;;;;;;;8.40;7.60;;;14.80;99.90;;;;;;5091557;28;20215;-57
2021/10/05 02:21:32;;;;;;;9.97;7.70;;;14.90;99.90;;;;;;5091353;28;20723;-59
2021/10/05 02:26:50;;;;;;;9.00;7.47;;;14.90;99.90;;;;;;5090198;28;20333;-59
2021/10/05 02:29:19;;;;;;;9.63;7.50;;;14.90;99.90;;;;;;5091193;28;20200;-57
2021/10/05 02:31:45;;;;;;;7.93;7.13;;;14.90;99.90;;;;;;5091522;28;20583;-57
2021/10/05 02:34:13;;;;;;;8.33;7.47;;;14.80;99.90;;;;;;5091407;28;20254;-57
2021/10/05 02:36:40;;;;;;;8.63;7.63;;;14.80;99.90;;;;;;5092028;28;20277;-58
2021/10/05 02:39:07;;;;;;;8.63;7.80;;;14.80;99.90;;;;;;5091331;28;20243;-59
2021/10/05 02:41:34;;;;;;;9.57;8.63;;;14.70;99.90;;;;;;5091836;28;20253;-57
2021/10/05 02:44:01;;;;;;;9.63;8.27;;;14.70;99.90;;;;;;5092054;28;20245;-57
2021/10/05 02:46:29;;;;;;;10.20;8.57;;;14.70;99.90;;;;;;5090862;28;20281;-58
2021/10/05 02:48:56;;;;;;;9.77;8.77;;;14.70;99.90;;;;;;5091346;28;20212;-58
2021/10/05 02:51:23;;;;;;;10.00;9.10;;;14.70;99.90;;;;;;5091167;28;20211;-60
2021/10/05 02:53:50;;;;;;;9.70;8.80;;;14.70;99.90;;;;;;5091059;28;20203;-58
2021/10/05 02:56:16;;;;;;;9.37;8.47;;;14.70;99.90;;;;;;5091122;28;20228;-57
2021/10/05 02:58:43;;;;;;;12.00;9.27;;;14.80;99.90;;;;;;5090996;28;20203;-59
2021/10/05 03:01:10;;;;;;;10.70;9.40;;;14.70;99.90;;;;;;5091009;28;20211;-60
2021/10/05 03:03:38;;;;;;;11.37;9.87;;;14.80;99.90;;;;;;5091205;28;20687;-57
2021/10/05 03:06:04;;;;;;;10.83;9.70;;;14.80;99.90;;;;;;5090813;28;20639;-58
2021/10/05 03:08:32;;;;;;;12.00;9.40;;;14.80;99.90;;;;;;5095169;28;20220;-58
2021/10/05 03:10:59;;;;;;;11.03;9.93;;;14.70;99.90;;;;;;5095019;28;20262;-58
2021/10/05 03:13:29;;;;;;;13.10;10.50;;;14.70;99.90;;;;;;5094790;28;20208;-59
2021/10/05 03:15:56;;;;;;;10.63;9.53;;;14.70;99.90;;;;;;5094783;28;20345;-60
2021/10/05 03:18:22;;;;;;;11.50;10.03;;;14.70;99.90;;;;;;5095076;28;20219;-61
2021/10/05 03:20:50;;;;;;;13.17;11.37;;;14.60;99.90;;;;;;5095492;28;20208;-59
2021/10/05 03:23:17;;;;;;;15.13;13.57;;;14.60;99.90;;;;;;5094785;28;20204;-59
2021/10/05 03:25:44;;;;;;;12.90;11.03;;;14.50;99.90;;;;;;5094458;28;20211;-58
2021/10/05 03:28:11;;;;;;;10.80;9.70;;;14.60;99.90;;;;;;5094726;28;20216;-61
2021/10/05 03:30:37;;;;;;;11.50;10.03;;;14.60;99.90;;;;;;5095077;28;20200;-58
2021/10/05 03:33:04;;;;;;;10.77;9.67;;;14.70;99.90;;;;;;5095047;28;20211;-58
2021/10/05 03:35:31;;;;;;;12.20;10.37;;;14.70;99.90;;;;;;5094501;28;20219;-57
2021/10/05 03:38:01;;;;;;;11.73;10.53;;;14.70;99.90;;;;;;5094396;28;20227;-58
2021/10/05 03:40:28;;;;;;;12.30;11.00;;;14.80;99.90;;;;;;5094519;28;20711;-57
2021/10/05 03:42:55;;;;;;;12.77;11.40;;;14.80;99.90;;;;;;5094386;28;20215;-58
2021/10/05 03:45:22;;;;;;;13.57;11.20;;;14.80;99.90;;;;;;5094456;28;20211;-59
2021/10/05 03:47:49;;;;;;;12.93;11.63;;;14.80;99.90;;;;;;5094080;28;20722;-57
2021/10/05 03:50:15;;;;;;;12.17;10.97;;;14.90;99.90;;;;;;5094450;28;20211;-58
2021/10/05 03:52:42;;;;;;;13.53;11.60;;;14.90;99.90;;;;;;5094307;28;20672;-57
2021/10/05 03:55:11;;;;;;;12.27;11.07;;;14.80;99.90;;;;;;5094092;28;20212;-60
2021/10/05 03:57:38;;;;;;;13.60;12.20;;;14.90;99.90;;;;;;5094587;28;20220;-58
2021/10/05 04:00:07;;;;;;;12.50;10.93;;;14.90;99.90;;;;;;5094508;28;20207;-59
2021/10/05 04:02:34;;;;;;;13.00;11.60;;;14.80;99.90;;;;;;5094543;28;20212;-59
2021/10/05 04:05:00;;;;;;;13.60;11.80;;;14.80;99.90;;;;;;5094582;28;20581;-59
2021/10/05 04:07:27;;;;;;;13.43;12.07;;;14.80;99.90;;;;;;5094275;28;20635;-60
2021/10/05 04:09:54;;;;;;;15.17;11.23;;;14.80;99.90;;;;;;5094473;28;20215;-60
2021/10/05 04:12:22;;;;;;;13.50;12.10;;;14.80;99.90;;;;;;5094471;28;20208;-60
2021/10/05 04:14:50;;;;;;;13.40;11.93;;;14.90;99.90;;;;;;5094055;28;20204;-59
2021/10/05 04:17:17;;;;;;;12.67;11.37;;;14.90;99.90;;;;;;5093762;28;20246;-59
2021/10/05 04:19:43;;;;;;;13.20;11.50;;;14.90;99.90;;;;;;5093891;28;20664;-62
2021/10/05 04:22:10;;;;;;;15.07;12.23;;;14.90;99.90;;;;;;5093869;28;20204;-59
2021/10/05 04:24:37;;;;;;;12.97;11.63;;;15.00;99.90;;;;;;5093436;28;20249;-60
2021/10/05 04:27:09;;;;;;;13.73;11.70;;;15.00;99.90;;;;;;5093460;28;20272;-59
2021/10/05 04:29:38;;;;;;;13.17;11.33;;;15.00;99.90;;;;;;5093705;28;20204;-58
2021/10/05 04:32:06;;;;;;;12.67;11.37;;;14.90;99.90;;;;;;5093857;28;20742;-60
2021/10/05 04:34:32;;;;;;;13.17;11.87;;;15.00;99.90;;;;;;5093477;28;20607;-60
2021/10/05 04:36:59;;;;;;;14.07;12.40;;;14.90;99.90;;;;;;5093223;28;20246;-61
2021/10/05 04:39:26;;;;;;;13.23;11.90;;;14.90;99.90;;;;;;5093511;28;20204;-61
2021/10/05 04:41:53;;;;;;;14.67;12.50;;;14.90;99.90;;;;;;5093263;28;20605;-60
2021/10/05 04:44:19;;;;;;;13.90;12.50;;;14.90;99.90;;;;;;5093517;28;20614;-61
2021/10/05 04:46:47;;;;;;;15.07;13.43;;;14.90;99.90;;;;;;5093308;28;20277;-60
2021/10/05 04:49:14;;;;;;;15.67;13.30;;;14.90;99.90;;;;;;5093057;28;20232;-60
2021/10/05 04:51:41;;;;;;;14.27;12.77;;;14.80;99.90;;;;;;5093273;28;20243;-61
2021/10/05 04:54:07;;;;;;;13.60;12.20;;;14.80;99.90;;;;;;5093204;28;20200;-61
2021/10/05 04:56:34;;;;;;;15.10;12.90;;;14.80;99.90;;;;;;5093032;28;20718;-60
2021/10/05 04:59:01;;;;;;;14.80;11.77;;;14.80;99.90;;;;;;5092942;28;20205;-60
2021/10/05 05:01:27;;;;;;;11.00;9.90;;;14.80;99.90;;;;;;5093134;28;20238;-62
2021/10/05 05:03:55;;;;;;;10.10;9.10;;;14.60;99.90;;;;;;5092776;28;20676;-59
2021/10/05 05:06:22;;;;;;;11.30;10.13;;;14.40;99.90;;;;;;5092976;28;20647;-61
2021/10/05 05:08:49;;;;;;;11.30;10.20;;;14.20;99.90;;;;;;5092740;28;20224;-59
2021/10/05 05:11:16;;;;;;;12.03;10.60;;;14.10;99.90;;;;;;5093241;28;20269;-61
2021/10/05 05:13:42;;;;;;;11.33;10.13;;;14.00;99.90;;;;;;5092859;28;20205;-60
2021/10/05 05:16:09;;;;;;;11.00;9.90;;;13.90;99.90;;;;;;5092864;28;20250;-60
2021/10/05 05:18:36;;;;;;;10.93;9.83;;;13.80;99.90;;;;;;5093625;28;20208;-60
2021/10/05 05:21:04;;;;;;;11.63;10.43;;;13.70;99.90;;;;;;5094949;28;20204;-60
2021/10/05 05:23:30;;;;;;;12.40;11.10;;;13.70;99.90;;;;;;5093589;28;20207;-60
2021/10/05 05:25:57;;;;;;;12.37;11.07;;;13.80;99.90;;;;;;5092783;28;20224;-59
2021/10/05 05:28:24;;;;;;;12.77;11.47;;;13.90;99.90;;;;;;5092361;28;20220;-61
2021/10/05 05:30:51;;;;;;;12.60;11.27;;;14.00;99.90;;;;;;5091607;28;20206;-60
2021/10/05 05:33:17;;;;;;;13.73;12.33;;;14.10;99.90;;;;;;5092088;28;20676;-59
2021/10/05 05:35:45;;;;;;;18.93;15.77;;;14.10;99.90;;;;;;5092355;28;20842;-59
2021/10/05 05:38:13;;;;;;;13.43;11.37;;;14.10;99.90;;;;;;5092308;28;20568;-59
2021/10/05 05:40:40;;;;;;;12.10;10.80;;;14.20;99.90;;;;;;5092130;28;20659;-58
2021/10/05 05:43:06;;;;;;;13.07;11.43;;;14.20;99.90;;;;;;5092452;28;20793;-60
2021/10/05 05:45:35;;;;;;;11.97;10.67;;;14.20;99.90;;;;;;5092270;28;20211;-59
2021/10/05 05:48:02;;;;;;;12.17;10.70;;;14.10;99.90;;;;;;5091912;28;20695;-60
2021/10/05 05:50:29;;;;;;;11.03;9.23;;;14.10;99.90;;;;;;5092395;28;20222;-60
2021/10/05 05:52:56;;;;;;;11.63;10.43;;;14.00;99.90;;;;;;5092278;28;20211;-61
2021/10/05 05:55:24;;;;;;;12.10;10.27;;;14.10;99.90;;;;;;5092622;28;20205;-61
2021/10/05 05:57:51;;;;;;;11.77;10.17;;;14.20;99.90;;;;;;5092332;28;20220;-61
2021/10/05 06:00:19;;;;;;;12.23;10.93;;;14.40;99.90;;;;;;5091761;28;20214;-61
2021/10/05 06:02:46;;;;;;;12.37;10.53;;;14.50;99.90;;;;;;5091984;28;20208;-61
2021/10/05 06:05:12;;;;;;;12.57;11.00;;;14.70;99.90;;;;;;5091952;28;20204;-61
2021/10/05 06:07:39;;;;;;;12.43;11.13;;;14.80;99.90;;;;;;5091973;28;20281;-61
2021/10/05 06:10:08;;;;;;;14.57;11.40;;;14.90;99.90;;;;;;5091692;28;20589;-60
2021/10/05 06:12:39;;;;;;;13.73;11.40;;;14.90;99.90;;;;;;5091810;28;20228;-61
2021/10/05 06:15:08;;;;;;;13.30;11.33;;;15.00;99.90;;;;;;5091870;28;20261;-60
2021/10/05 06:17:39;;;;;;;11.90;10.70;;;15.00;99.90;;;;;;5091396;28;20708;-59
2021/10/05 06:20:07;;;;;;;12.53;11.07;;;15.10;99.90;;;;;;5091641;28;20261;-60
2021/10/05 06:22:34;;;;;;;13.30;11.07;;;15.10;99.90;;;;;;5091863;28;20691;-60
2021/10/05 06:25:01;;;;;;;12.43;11.13;;;15.10;99.90;;;;;;5091920;28;20200;-61
2021/10/05 06:27:28;;;;;;;13.30;11.60;;;15.10;99.90;;;;;;5102036;22;20320;-66
2021/10/05 06:29:56;;;;;;;11.90;10.70;;;15.10;99.90;;;;;;5071017;28;20238;-65
2021/10/05 06:32:23;;;;;;;12.57;11.17;;;15.10;99.90;;;;;;5071451;28;20207;-63
2021/10/05 06:34:50;;;;;;;11.97;10.67;;;15.20;99.90;;;;;;5071024;28;20247;-65
2021/10/05 06:37:17;;;;;;;12.83;10.83;;;15.30;99.90;;;;;;5071219;28;20229;-65
2021/10/05 06:39:44;;;;;;;12.03;10.57;;;15.20;99.90;;;;;;5070752;28;20201;-66
2021/10/05 06:42:11;;;;;;;12.63;11.33;;;15.00;99.90;;;;;;5070641;28;20213;-66
2021/10/05 06:44:38;;;;;;;12.23;10.70;;;15.10;99.90;;;;;;5070895;28;20688;-66
2021/10/05 06:47:06;;;;;;;13.03;11.67;;;15.10;99.90;;;;;;5071270;28;20221;-66
2021/10/05 06:49:33;;;;;;;11.90;10.70;;;15.20;99.90;;;;;;5071126;28;20236;-65
2021/10/05 06:52:01;;;;;;;12.57;11.20;;;15.40;99.90;;;;;;5070977;28;20212;-64
2021/10/05 06:54:30;;;;;;;17.53;15.73;;;15.50;99.90;;;;;;5070740;28;20232;-64
2021/10/05 06:56:57;;;;;;;11.60;10.40;;;15.60;99.90;;;;;;5070543;28;20229;-65
2021/10/05 06:59:24;;;;;;;13.27;10.70;;;15.60;99.90;;;;;;5070635;28;20212;-65
2021/10/05 07:01:51;;;;;;;11.77;10.17;;;15.70;99.90;;;;;;5070700;28;20207;-67
2021/10/05 07:04:19;;;;;;;10.67;9.57;;;15.70;99.90;;;;;;5070744;28;20217;-66
2021/10/05 07:06:46;;;;;;;11.53;10.33;;;15.70;99.90;;;;;;5070638;28;20228;-64
2021/10/05 07:09:13;;;;;;;19.30;15.87;;;15.80;99.90;;;;;;5070603;28;20311;-64
2021/10/05 07:11:40;;;;;;;12.37;9.83;;;15.90;99.90;;;;;;5071136;28;20566;-65
2021/10/05 07:14:06;;;;;;;18.27;14.07;;;16.00;99.90;;;;;;5070480;28;20211;-65
2021/10/05 07:16:33;;;;;;;12.10;10.43;;;16.10;99.90;;;;;;5070505;28;20255;-65
2021/10/05 07:19:00;;;;;;;14.93;10.30;;;16.20;99.90;;;;;;5070701;28;20634;-64
2021/10/05 07:21:28;;;;;;;11.00;9.77;;;16.20;99.90;;;;;;5070434;28;20288;-65
2021/10/05 07:23:55;;;;;;;11.83;10.63;;;16.30;99.90;;;;;;5070586;28;20208;-66
2021/10/05 07:26:21;;;;;;;11.10;9.87;;;16.50;99.90;;;;;;5070485;28;20237;-65
2021/10/05 07:28:48;;;;;;;11.47;9.80;;;16.70;99.90;;;;;;5070584;28;20221;-64
2021/10/05 07:31:15;;;;;;;10.10;9.10;;;16.90;99.90;;;;;;5070671;28;20639;-66
2021/10/05 07:33:43;;;;;;;10.90;7.93;;;17.10;99.90;;;;;;5070467;28;20216;-66
2021/10/05 07:36:10;;;;;;;8.60;7.70;;;17.30;99.90;;;;;;5070461;28;20232;-67
2021/10/05 07:38:39;;;;;;;9.30;8.10;;;17.40;99.90;;;;;;5069942;28;20730;-66
2021/10/05 07:41:06;;;;;;;9.17;7.40;;;17.60;99.90;;;;;;5070591;28;20205;-65
2021/10/05 07:43:33;;;;;;;8.95;8.05;;;17.60;99.90;;;;;;5070784;28;20205;-66
2021/10/05 07:46:00;;;;;;;8.13;7.32;;;17.50;99.90;;;;;;5070229;28;20212;-67
2021/10/05 07:48:27;;;;;;;8.57;7.67;;;17.50;99.90;;;;;;5069863;28;20260;-66
2021/10/05 07:50:54;;;;;;;7.90;7.07;;;17.40;99.90;;;;;;5070351;28;20212;-67
2021/10/05 07:53:21;;;;;;;7.28;6.57;;;17.50;99.90;;;;;;5072395;28;20643;-60
2021/10/05 07:55:49;;;;;;;7.07;6.37;;;17.70;99.90;;;;;;5073851;28;20208;-64
2021/10/05 07:58:16;;;;;;;7.53;6.80;;;17.90;99.90;;;;;;5073957;28;20224;-64
2021/10/05 08:00:43;;;;;;;7.10;6.40;;;17.90;99.90;;;;;;5073909;28;20211;-63
2021/10/05 08:03:10;;;;;;;6.13;5.43;;;18.00;99.90;;;;;;5074473;28;20208;-62
2021/10/05 08:05:37;;;;;;;6.97;6.32;;;18.10;99.90;;;;;;5074156;28;20660;-63
2021/10/05 08:08:07;;;;;;;7.53;6.72;;;18.30;99.90;;;;;;5073997;28;20275;-63
2021/10/05 08:10:34;;;;;;;7.07;6.38;;;18.50;99.90;;;;;;5074451;28;20205;-64
2021/10/05 08:13:03;;;;;;;6.80;6.15;;;18.60;99.90;;;;;;5074563;28;20408;-63
2021/10/05 08:15:30;;;;;;;6.50;5.78;;;18.60;99.90;;;;;;5074167;28;20673;-64
2021/10/05 08:17:57;;;;;;;7.10;6.32;;;18.70;99.90;;;;;;5073852;28;20767;-63
2021/10/05 08:20:25;;;;;;;8.20;7.40;;;18.40;99.90;;;;;;5074182;28;20209;-63
2021/10/05 08:22:52;;;;;;;9.65;6.70;;;18.20;99.90;;;;;;5073859;28;20209;-63
2021/10/05 08:25:19;;;;;;;6.78;6.07;;;18.00;99.90;;;;;;5073909;28;20208;-63
2021/10/05 08:27:46;;;;;;;6.78;6.00;;;17.80;99.90;;;;;;5073259;28;20245;-64
2021/10/05 08:30:16;;;;;;;6.68;6.07;;;17.80;99.90;;;;;;5073459;28;20324;-62
2021/10/05 08:32:43;;;;;;;7.17;5.33;;;17.90;99.90;;;;;;5073917;28;20613;-64
2021/10/05 08:35:11;;;;;;;8.90;6.97;;;18.10;99.90;;;;;;5073201;28;20594;-65
2021/10/05 08:37:39;;;;;;;6.93;6.15;;;18.20;99.90;;;;;;5073299;28;20225;-65
2021/10/05 08:40:08;;;;;;;6.40;5.80;;;18.20;99.90;;;;;;5073470;28;20209;-63
2021/10/05 08:42:35;;;;;;;7.90;6.22;;;18.20;99.90;;;;;;5073097;28;20215;-64
2021/10/05 08:45:02;;;;;;;7.53;5.97;;;18.20;99.90;;;;;;5072839;28;20206;-63
2021/10/05 08:47:30;;;;;;;6.32;5.72;;;18.30;99.90;;;;;;5073271;28;20221;-65
2021/10/05 08:49:57;;;;;;;6.35;5.75;;;18.40;99.90;;;;;;5073206;28;20244;-64
2021/10/05 08:52:24;;;;;;;5.55;5.05;;;18.30;99.90;;;;;;5073235;28;20216;-64
2021/10/05 08:54:51;;;;;;;5.28;4.55;;;18.20;99.90;;;;;;5073307;28;20201;-66
2021/10/05 08:57:18;;;;;;;4.85;4.28;;;18.20;99.90;;;;;;5072694;28;20712;-63
2021/10/05 08:59:44;;;;;;;5.40;4.50;;;18.30;99.90;;;;;;5072871;28;20209;-64
2021/10/05 09:02:13;;;;;;;4.97;4.47;;;18.60;99.90;;;;;;5072776;28;20567;-65
2021/10/05 09:04:41;;;;;;;6.93;5.13;;;18.80;99.90;;;;;;5071316;28;20205;-65
2021/10/05 09:07:18;;;;;;;5.30;4.80;;;19.00;99.90;;;;;;5072897;28;20228;-64
2021/10/05 09:09:56;;;;;;;8.15;5.68;;;19.20;99.90;;;;;;5072580;28;20571;-65
2021/10/05 09:12:25;;;;;;;5.85;5.22;;;19.30;99.90;;;;;;5072767;28;20274;-65
2021/10/05 09:14:51;;;;;;;5.82;5.22;;;19.30;99.90;;;;;;5072602;28;20212;-64
2021/10/05 09:17:23;;;;;;;30.63;23.75;;;19.30;99.90;;;;;;5073404;28;20739;-64
2021/10/05 09:19:53;;;;;;;9.05;7.30;;;19.50;99.90;;;;;;5073069;28;20204;-65
2021/10/05 09:22:23;;;;;;;6.55;5.95;;;19.80;99.90;;;;;;5073266;28;20212;-66
2021/10/05 09:24:52;;;;;;;7.03;6.25;;;20.00;99.90;;;;;;5073276;28;20234;-66
2021/10/05 09:27:19;;;;;;;6.47;5.78;;;20.10;99.90;;;;;;5073019;28;20240;-65
2021/10/05 09:29:49;;;;;;;6.50;5.70;;;20.00;99.90;;;;;;5072931;28;20320;-65
2021/10/05 09:32:17;;;;;;;8.88;7.97;;;19.80;99.90;;;;;;5072862;28;20208;-65
2021/10/05 09:34:50;;;;;;;7.93;5.95;;;19.70;99.90;;;;;;5072344;28;20289;-65
2021/10/05 09:37:20;;;;;;;5.88;5.28;;;19.60;99.90;;;;;;5072205;28;20282;-65
2021/10/05 09:39:50;;;;;;;6.13;5.53;;;19.60;99.90;;;;;;5072368;28;20233;-66
2021/10/05 09:42:26;;;;;;;7.32;5.75;;;19.50;99.90;;;;;;5072532;28;20209;-65
2021/10/05 09:44:54;;;;;;;8.60;5.80;;;19.50;99.90;;;;;;5072141;28;20295;-64
2021/10/05 09:47:35;;;;;;;6.63;6.03;;;19.50;99.90;;;;;;5071743;28;20606;-64
2021/10/05 09:50:03;;;;;;;7.53;5.75;;;19.40;99.90;;;;;;5071800;28;20581;-64
2021/10/05 09:52:43;;;;;;;6.78;5.22;;;19.30;99.90;;;;;;5072097;28;20205;-66
2021/10/05 09:55:11;;;;;;;6.47;5.60;;;19.20;99.90;;;;;;5071752;28;20211;-66
2021/10/05 09:57:38;;;;;;;5.50;4.78;;;19.30;99.90;;;;;;5071720;28;20709;-66
2021/10/05 10:00:07;;;;;;;4.90;4.43;;;19.40;99.90;;;;;;5072021;28;20213;-66
2021/10/05 10:02:37;;;;;;;7.95;4.88;;;19.50;99.90;;;;;;5071820;28;20278;-66
2021/10/05 10:05:05;;;;;;;5.25;4.53;;;19.50;99.90;;;;;;5071663;28;20213;-66
2021/10/05 10:07:36;;;;;;;4.55;4.10;;;19.60;99.90;;;;;;5071467;28;20225;-66
2021/10/05 10:10:07;;;;;;;5.50;4.30;;;19.70;99.90;;;;;;5071331;28;20217;-66
2021/10/05 10:12:34;;;;;;;5.85;4.10;;;19.90;99.90;;;;;;5072129;28;20217;-66
2021/10/05 10:15:01;;;;;;;5.65;4.82;;;20.00;99.90;;;;;;5071294;28;20707;-66
2021/10/05 10:17:28;;;;;;;5.97;4.55;;;20.00;99.90;;;;;;5071437;28;20225;-66
2021/10/05 10:19:55;;;;;;;4.50;4.00;;;20.00;99.90;;;;;;5071657;28;20279;-66
2021/10/05 10:22:22;;;;;;;5.60;3.78;;;20.00;99.90;;;;;;5071643;28;20255;-66
2021/10/05 10:24:52;;;;;;;4.10;3.70;;;20.00;99.90;;;;;;5070829;28;20699;-66
2021/10/05 10:27:21;;;;;;;5.70;4.20;;;20.00;99.90;;;;;;5071206;28;20233;-65
2021/10/05 10:29:48;;;;;;;6.07;4.10;;;20.10;99.90;;;;;;5071154;28;20228;-65
2021/10/05 10:32:18;;;;;;;5.05;3.65;;;20.30;99.90;;;;;;5071193;28;20201;-65
2021/10/05 10:34:48;;;;;;;3.38;3.08;;;20.50;99.90;;;;;;5071341;28;20200;-65
2021/10/05 10:37:17;;;;;;;7.45;2.85;;;20.70;99.90;;;;;;5071203;28;20229;-65
2021/10/05 10:39:45;;;;;;;9.55;7.28;;;20.80;99.90;;;;;;5071167;28;20679;-65
2021/10/05 10:42:16;;;;;;;3.45;2.90;;;21.00;99.90;;;;;;5071284;28;20197;-65
2021/10/05 10:44:44;;;;;;;3.42;2.67;;;21.20;99.90;;;;;;5071740;28;20258;-66
2021/10/05 10:47:14;;;;;;;2.72;2.47;;;21.50;99.90;;;;;;5071791;28;20229;-65
2021/10/05 10:49:53;;;;;;;2.50;2.30;;;21.70;99.90;;;;;;5071416;28;20228;-68
2021/10/05 10:52:24;;;;;;;3.03;2.42;;;21.80;99.90;;;;;;5069776;28;20219;-65
2021/10/05 10:54:58;;;;;;;2.55;1.98;;;21.70;99.90;;;;;;5070716;28;20275;-64
2021/10/05 10:57:35;;;;;;;2.67;2.03;;;21.50;99.90;;;;;;5070860;28;20315;-65
2021/10/05 11:00:19;;;;;;;3.47;2.05;;;21.30;99.90;;;;;;5070936;28;20677;-66
2021/10/05 11:02:48;;;;;;;3.63;2.17;;;21.30;99.90;;;;;;5070555;28;20223;-65
2021/10/05 11:05:17;;;;;;;2.30;2.00;;;21.30;99.90;;;;;;5070779;28;20205;-65
2021/10/05 11:07:44;;;;;;;3.67;1.88;;;21.30;99.90;;;;;;5070816;28;20221;-67
2021/10/05 11:10:11;;;;;;;1.83;1.50;;;21.30;99.90;;;;;;5070614;28;20225;-68
2021/10/05 11:12:48;;;;;;;4.90;3.65;;;21.20;99.90;;;;;;5071019;28;20209;-68
2021/10/05 11:15:16;;;;;;;2.58;2.03;;;21.30;99.90;;;;;;5070556;28;20219;-69
2021/10/05 11:17:44;;;;;;;2.53;2.33;;;21.40;99.90;;;;;;5070189;28;20221;-67
2021/10/05 11:20:12;;;;;;;2.25;1.98;;;21.40;99.90;;;;;;5070541;28;20232;-65
2021/10/05 11:22:39;;;;;;;4.40;1.98;;;21.50;99.90;;;;;;5070106;28;20206;-69
2021/10/05 11:25:06;;;;;;;1.88;1.60;;;21.40;99.90;;;;;;5069813;28;20209;-66
2021/10/05 11:27:34;;;;;;;2.22;1.95;;;21.40;99.90;;;;;;5070580;28;20237;-68
2021/10/05 11:30:05;;;;;;;2.00;1.80;;;21.40;99.90;;;;;;5074108;28;20290;-68
2021/10/05 11:32:33;;;;;;;2.55;1.95;;;21.60;99.90;;;;;;5074193;28;20209;-68
2021/10/05 11:35:00;;;;;;;1.60;1.50;;;21.70;99.90;;;;;;5074071;28;20304;-68
2021/10/05 11:37:27;;;;;;;3.55;1.73;;;21.90;99.90;;;;;;5074162;28;20220;-67
2021/10/05 11:39:56;;;;;;;1.70;1.50;;;22.00;99.90;;;;;;5073976;28;20369;-67
2021/10/05 11:42:25;;;;;;;6.38;1.73;;;22.00;99.90;;;;;;5074620;28;20237;-65
2021/10/05 11:44:55;;;;;;;4.13;1.42;;;22.00;99.90;;;;;;5074269;28;20208;-63
2021/10/05 11:47:23;;;;;;;3.55;1.45;;;21.90;99.90;;;;;;5074284;28;20224;-63
2021/10/05 11:49:54;;;;;;;3.13;1.70;;;21.80;99.90;;;;;;5073767;28;20641;-63
2021/10/05 11:52:23;;;;;;;2.53;1.50;;;21.70;99.90;;;;;;5074124;28;20216;-62
2021/10/05 11:54:51;;;;;;;1.80;1.35;;;21.80;99.90;;;;;;5074405;28;20239;-63
2021/10/05 11:57:21;;;;;;;1.77;1.48;;;21.90;99.90;;;;;;5073923;28;20712;-62
2021/10/05 11:59:48;;;;;;;1.60;1.30;;;21.90;99.90;;;;;;5073868;28;20201;-63
2021/10/05 12:02:17;;;;;;;3.45;1.00;;;22.00;99.90;;;;;;5074041;28;20213;-63
2021/10/05 12:04:47;;;;;;;1.52;1.10;;;22.30;99.90;;;;;;5073546;28;20695;-63
2021/10/05 12:07:18;;;;;;;1.77;1.15;;;22.40;99.90;;;;;;5073862;28;20225;-62
2021/10/05 12:09:48;;;;;;;2.05;1.00;;;22.40;99.90;;;;;;5073764;28;20260;-62
2021/10/05 12:12:16;;;;;;;1.40;1.20;;;22.50;99.90;;;;;;5074060;28;20755;-62
2021/10/05 12:14:45;;;;;;;1.20;1.10;;;22.60;99.90;;;;;;5074499;28;20208;-62
2021/10/05 12:17:14;;;;;;;1.50;0.85;;;22.60;99.90;;;;;;5074065;28;20626;-62
2021/10/05 12:19:45;;;;;;;1.40;1.08;;;22.40;99.90;;;;;;5073925;28;20201;-62
2021/10/05 12:22:16;;;;;;;3.08;1.88;;;22.40;99.90;;;;;;5073621;28;20209;-61
2021/10/05 12:24:47;;;;;;;1.40;1.15;;;22.30;99.90;;;;;;5073378;28;20227;-62
2021/10/05 12:27:17;;;;;;;1.65;0.90;;;22.10;99.90;;;;;;5096929;22;20252;-60
2021/10/05 12:29:55;;;;;;;0.80;0.80;;;22.00;99.90;;;;;;5073419;28;20759;-60
2021/10/05 12:32:37;;;;;;;2.72;1.33;;;21.70;99.90;;;;;;5073293;28;20798;-60
2021/10/05 12:35:05;;;;;;;2.55;1.08;;;21.50;99.90;;;;;;5073218;28;20208;-61
2021/10/05 12:37:34;;;;;;;2.70;1.50;;;21.40;99.90;;;;;;5073168;28;20229;-60
2021/10/05 12:40:07;;;;;;;1.95;1.25;;;21.40;99.90;;;;;;5072643;28;20557;-60
2021/10/05 12:42:43;;;;;;;1.63;0.98;;;21.40;99.90;;;;;;5072926;28;20208;-60
2021/10/05 12:45:12;;;;;;;1.75;1.27;;;21.30;99.90;;;;;;5073289;28;20224;-60
2021/10/05 12:47:58;;;;;;;2.05;1.02;;;21.40;99.90;;;;;;5073219;28;20232;-60